createdAt,value
2023-04-25T00:01:31.369Z,10.40
2023-04-25T00:04:02.607Z,10.40
2023-04-25T00:06:30.975Z,10.50
2023-04-25T00:09:01.622Z,10.50
2023-04-25T00:11:28.633Z,10.50
2023-04-25T00:13:57.471Z,10.40
2023-04-25T00:16:25.250Z,10.50
2023-04-25T00:18:55.248Z,10.40
2023-04-25T00:21:25.714Z,10.40
2023-04-25T00:23:54.918Z,10.40
2023-04-25T00:26:22.479Z,10.30
2023-04-25T00:28:49.613Z,10.30
2023-04-25T00:31:21.527Z,10.30
2023-04-25T00:33:49.587Z,10.30
2023-04-25T00:36:18.595Z,10.40
2023-04-25T00:38:45.716Z,10.40
2023-04-25T00:41:20.133Z,10.40
2023-04-25T00:43:49.872Z,10.40
2023-04-25T00:46:21.503Z,10.30
2023-04-25T00:48:52.285Z,10.40
2023-04-25T00:51:23.279Z,10.40
2023-04-25T00:53:51.962Z,10.40
2023-04-25T00:56:19.586Z,10.40
2023-04-25T00:58:46.849Z,10.30
2023-04-25T01:01:14.404Z,10.40
2023-04-25T01:03:44.262Z,10.30
2023-04-25T01:06:14.122Z,10.30
2023-04-25T01:08:47.559Z,10.10
2023-04-25T01:11:17.508Z,10.00
2023-04-25T01:13:47.133Z,10.10
2023-04-25T01:16:17.430Z,10.00
2023-04-25T01:18:47.197Z,10.10
2023-04-25T01:21:19.615Z,10.10
2023-04-25T01:23:46.799Z,10.10
2023-04-25T01:26:14.534Z,10.10
2023-04-25T01:28:42.778Z,10.10
2023-04-25T01:31:10.830Z,10.20
2023-04-25T01:33:38.587Z,10.20
2023-04-25T01:36:07.373Z,10.10
2023-04-25T01:38:36.749Z,10.10
2023-04-25T01:41:04.113Z,10.10
2023-04-25T01:43:31.688Z,10.10
2023-04-25T01:45:58.907Z,10.10
2023-04-25T01:48:26.446Z,10.10
2023-04-25T01:50:54.228Z,10.10
2023-04-25T01:53:23.947Z,10.00
2023-04-25T01:56:00.298Z,10.00
2023-04-25T01:58:29.996Z,10.00
2023-04-25T02:00:56.932Z,9.90
2023-04-25T02:03:24.615Z,9.90
2023-04-25T02:05:52.243Z,9.90
2023-04-25T02:08:22.699Z,9.90
2023-04-25T02:10:50.162Z,9.90
2023-04-25T02:13:24.439Z,9.90
2023-04-25T02:15:58.723Z,9.90
2023-04-25T02:18:27.715Z,9.80
2023-04-25T02:20:54.850Z,9.80
2023-04-25T02:23:25.282Z,9.70
2023-04-25T02:25:56.295Z,9.70
2023-04-25T02:28:28.190Z,9.80
2023-04-25T02:30:55.319Z,9.80
2023-04-25T02:33:25.988Z,9.80
2023-04-25T02:35:53.045Z,9.50
2023-04-25T02:38:23.508Z,9.50
2023-04-25T02:40:50.542Z,9.50
2023-04-25T02:43:20.586Z,9.50
2023-04-25T02:45:48.999Z,9.50
2023-04-25T02:48:19.710Z,9.50
2023-04-25T02:50:47.180Z,9.50
2023-04-25T02:53:14.813Z,9.50
2023-04-25T02:55:42.125Z,9.50
2023-04-25T02:58:09.750Z,9.40
2023-04-25T03:00:36.911Z,9.50
2023-04-25T03:03:05.482Z,9.50
2023-04-25T03:05:33.023Z,9.40
2023-04-25T03:07:59.962Z,9.50
2023-04-25T03:13:14.652Z,9.60
2023-04-25T03:15:44.903Z,9.50
2023-04-25T03:18:13.284Z,9.50
2023-04-25T03:23:33.836Z,9.50
2023-04-25T03:26:04.545Z,9.50
2023-04-25T03:28:32.071Z,9.50
2023-04-25T03:31:05.122Z,9.50
2023-04-25T03:33:33.960Z,9.50
2023-04-25T03:36:01.655Z,9.30
2023-04-25T03:38:31.874Z,9.20
2023-04-25T03:40:59.337Z,9.20
2023-04-25T03:43:26.781Z,9.20
2023-04-25T03:45:56.802Z,9.00
2023-04-25T03:48:26.149Z,8.90
2023-04-25T03:50:55.342Z,8.80
2023-04-25T03:53:22.584Z,8.70
2023-04-25T03:55:49.504Z,8.70
2023-04-25T03:58:17.133Z,8.60
2023-04-25T04:00:44.580Z,8.60
2023-04-25T04:03:12.141Z,8.60
2023-04-25T04:05:41.597Z,8.50
2023-04-25T04:08:10.000Z,8.50
2023-04-25T04:10:40.641Z,8.50
2023-04-25T04:13:13.558Z,8.50
2023-04-25T04:15:41.152Z,8.60
2023-04-25T04:21:01.859Z,8.60
2023-04-25T04:23:30.652Z,8.60
2023-04-25T04:25:57.778Z,8.60
2023-04-25T04:28:25.242Z,8.60
2023-04-25T04:30:53.428Z,8.60
2023-04-25T04:33:20.617Z,8.50
2023-04-25T04:35:48.116Z,8.40
2023-04-25T04:38:17.066Z,8.30
2023-04-25T04:40:45.447Z,8.40
2023-04-25T04:43:13.077Z,8.40
2023-04-25T04:45:41.238Z,8.40
2023-04-25T04:48:08.435Z,8.30
2023-04-25T04:50:36.492Z,8.40
2023-04-25T04:53:04.862Z,8.40
2023-04-25T04:55:34.081Z,8.30
2023-04-25T04:58:02.471Z,8.30
2023-04-25T05:00:30.505Z,8.30
2023-04-25T05:02:58.070Z,8.30
2023-04-25T05:05:25.764Z,8.40
2023-04-25T05:07:52.733Z,8.40
2023-04-25T05:10:22.518Z,8.40
2023-04-25T05:12:49.712Z,8.40
2023-04-25T05:15:18.268Z,8.50
2023-04-25T05:17:45.853Z,8.50
2023-04-25T05:20:15.022Z,8.60
2023-04-25T05:22:42.673Z,8.70
2023-04-25T05:25:11.141Z,8.70
2023-04-25T05:27:39.178Z,8.80
2023-04-25T05:30:13.739Z,8.80
2023-04-25T05:32:42.350Z,8.90
2023-04-25T05:35:10.048Z,8.90
2023-04-25T05:37:40.434Z,8.90
2023-04-25T05:40:09.716Z,8.80
2023-04-25T05:42:42.826Z,8.80
2023-04-25T05:45:10.650Z,9.10
2023-04-25T05:47:41.686Z,9.20
2023-04-25T05:50:10.275Z,9.30
2023-04-25T05:52:40.318Z,9.40
2023-04-25T05:55:08.650Z,9.50
2023-04-25T05:57:35.924Z,9.60
2023-04-25T06:00:05.344Z,9.70
2023-04-25T06:02:32.494Z,9.70
2023-04-25T06:05:01.763Z,9.70
2023-04-25T06:07:28.922Z,9.70
2023-04-25T06:10:02.427Z,9.80
2023-04-25T06:12:29.931Z,9.70
2023-04-25T06:14:56.987Z,9.60
2023-04-25T06:17:24.082Z,9.60
2023-04-25T06:19:54.246Z,9.60
2023-04-25T06:22:25.173Z,9.50
2023-04-25T06:24:52.349Z,9.50
2023-04-25T06:27:19.366Z,9.40
2023-04-25T06:29:52.424Z,9.40
2023-04-25T06:32:19.578Z,9.40
2023-04-25T06:34:54.224Z,9.40
2023-04-25T06:37:22.553Z,9.60
2023-04-25T06:39:50.061Z,9.70
2023-04-25T06:42:17.146Z,10.00
2023-04-25T06:44:44.694Z,10.20
2023-04-25T06:47:11.737Z,10.40
2023-04-25T06:49:39.519Z,10.70
2023-04-25T06:52:09.806Z,10.90
2023-04-25T06:54:38.182Z,11.00
2023-04-25T06:57:05.928Z,11.30
2023-04-25T06:59:34.156Z,11.60
2023-04-25T07:02:04.883Z,11.80
2023-04-25T07:04:32.121Z,12.00
2023-04-25T07:07:02.247Z,12.00
2023-04-25T07:09:29.847Z,13.30
2023-04-25T07:11:58.174Z,14.70
2023-04-25T07:14:31.304Z,16.10
2023-04-25T07:16:58.376Z,16.10
2023-04-25T07:19:27.988Z,14.50
2023-04-25T07:21:54.968Z,13.60
2023-04-25T07:24:22.445Z,12.70
2023-04-25T07:26:49.416Z,12.10
2023-04-25T07:29:17.877Z,11.50
2023-04-25T07:34:31.085Z,11.20
2023-04-25T07:36:58.149Z,11.00
2023-04-25T07:39:25.749Z,11.00
2023-04-25T07:41:54.982Z,10.90
2023-04-25T07:44:24.296Z,11.10
2023-04-25T07:46:51.369Z,11.70
2023-04-25T07:49:18.926Z,11.70
2023-04-25T07:51:48.843Z,11.40
2023-04-25T07:54:19.725Z,11.70
2023-04-25T07:56:53.419Z,11.70
2023-04-25T07:59:26.367Z,11.90
2023-04-25T08:01:54.137Z,12.00
2023-04-25T08:04:27.083Z,12.00
2023-04-25T08:06:57.671Z,12.30
2023-04-25T08:09:27.969Z,12.90
2023-04-25T08:11:55.329Z,13.00
2023-04-25T08:14:24.130Z,13.40
2023-04-25T08:16:51.714Z,14.90
2023-04-25T08:19:26.672Z,16.20
2023-04-25T08:21:58.049Z,16.70
2023-04-25T08:24:25.295Z,15.80
2023-04-25T08:26:52.922Z,15.00
2023-04-25T08:29:20.365Z,14.50
2023-04-25T08:31:49.058Z,13.90
2023-04-25T08:34:19.563Z,13.40
2023-04-25T08:36:46.934Z,13.10
2023-04-25T08:39:14.330Z,12.70
2023-04-25T08:41:42.586Z,12.90
2023-04-25T08:44:12.897Z,13.20
2023-04-25T08:46:41.844Z,13.20
2023-04-25T08:49:14.218Z,13.80
2023-04-25T08:51:47.860Z,14.10
2023-04-25T08:54:33.530Z,14.10
2023-04-25T08:57:05.648Z,13.50
2023-04-25T08:59:35.625Z,13.40
2023-04-25T09:02:04.591Z,13.30
2023-04-25T09:04:33.283Z,13.20
2023-04-25T09:07:03.151Z,13.10
2023-04-25T09:09:30.930Z,13.00
2023-04-25T09:11:58.183Z,13.10
2023-04-25T09:14:26.806Z,13.20
2023-04-25T09:17:06.075Z,13.20
2023-04-25T09:19:41.697Z,12.80
2023-04-25T09:22:09.818Z,12.80
2023-04-25T09:24:39.302Z,12.80
2023-04-25T09:27:08.014Z,12.80
2023-04-25T09:29:36.705Z,13.10
2023-04-25T09:32:20.613Z,13.20
2023-04-25T09:34:54.202Z,13.40
2023-04-25T09:37:26.263Z,13.30
2023-04-25T09:42:43.090Z,13.00
2023-04-25T09:45:17.063Z,12.50
2023-04-25T09:47:47.022Z,12.20
2023-04-25T09:50:20.817Z,12.00
2023-04-25T09:53:11.801Z,11.90
2023-04-25T09:55:44.556Z,11.90
2023-04-25T09:58:13.738Z,12.10
2023-04-25T10:00:42.407Z,12.20
2023-04-25T10:03:19.027Z,12.40
2023-04-25T10:05:50.652Z,12.60
2023-04-25T10:08:21.572Z,12.70
2023-04-25T10:10:51.763Z,12.50
2023-04-25T10:13:22.515Z,12.50
2023-04-25T10:15:51.887Z,12.20
2023-04-25T10:18:21.702Z,12.10
2023-04-25T10:21:01.077Z,12.20
2023-04-25T10:23:30.733Z,12.30
2023-04-25T10:25:58.808Z,12.10
2023-04-25T10:28:26.127Z,11.90
2023-04-25T10:31:02.600Z,11.80
2023-04-25T10:33:48.791Z,11.60
2023-04-25T10:36:31.720Z,11.50
2023-04-25T10:39:07.957Z,11.60
2023-04-25T10:41:53.996Z,11.60
2023-04-25T10:44:29.817Z,11.80
2023-04-25T10:46:58.853Z,11.80
2023-04-25T10:49:34.347Z,11.90
2023-04-25T10:52:18.775Z,11.90
2023-04-25T10:54:51.175Z,12.10
2023-04-25T10:57:39.296Z,12.10
2023-04-25T11:00:16.403Z,12.10
2023-04-25T11:02:48.543Z,12.20
2023-04-25T11:08:35.147Z,12.10
2023-04-25T11:11:05.834Z,12.10
2023-04-25T11:13:33.024Z,12.40
2023-04-25T11:16:12.371Z,12.40
2023-04-25T11:18:45.759Z,12.40
2023-04-25T11:21:14.466Z,12.10
2023-04-25T11:23:48.696Z,12.10
2023-04-25T11:26:16.260Z,12.20
2023-04-25T11:28:48.844Z,12.40
2023-04-25T11:31:16.387Z,12.50
2023-04-25T11:33:46.705Z,12.50
2023-04-25T11:36:14.330Z,12.70
2023-04-25T11:38:46.488Z,12.70
2023-04-25T11:41:14.534Z,12.50
2023-04-25T11:43:43.395Z,12.30
2023-04-25T11:46:11.715Z,12.30
2023-04-25T11:48:40.202Z,12.40
2023-04-25T11:51:07.891Z,12.30
2023-04-25T11:53:35.179Z,12.40
2023-04-25T11:56:13.355Z,12.60
2023-04-25T11:58:57.427Z,12.60
2023-04-25T12:01:30.492Z,12.40
2023-04-25T12:04:11.756Z,12.60
2023-04-25T12:06:42.319Z,12.60
2023-04-25T12:12:00.707Z,13.00
2023-04-25T12:14:30.280Z,13.20
2023-04-25T12:16:59.053Z,13.30
2023-04-25T12:19:34.167Z,13.30
2023-04-25T12:22:02.363Z,13.30
2023-04-25T12:24:29.623Z,13.30
2023-04-25T12:27:09.630Z,13.20
2023-04-25T12:29:49.298Z,13.20
2023-04-25T12:32:18.174Z,13.20
2023-04-25T12:34:46.476Z,13.00
2023-04-25T12:37:13.994Z,13.00
2023-04-25T12:39:41.645Z,12.70
2023-04-25T12:42:13.050Z,12.70
2023-04-25T12:44:43.747Z,12.60
2023-04-25T12:47:11.519Z,12.60
2023-04-25T12:49:38.878Z,12.50
2023-04-25T12:52:06.523Z,12.50
2023-04-25T12:54:34.139Z,12.40
2023-04-25T12:57:06.964Z,12.50
2023-04-25T12:59:35.444Z,12.50
2023-04-25T13:02:02.913Z,12.50
2023-04-25T13:04:30.513Z,12.60
2023-04-25T13:07:03.388Z,12.90
2023-04-25T13:09:30.923Z,13.00
2023-04-25T13:11:59.386Z,13.20
2023-04-25T13:14:29.260Z,13.20
2023-04-25T13:16:57.904Z,13.10
2023-04-25T13:19:25.589Z,12.90
2023-04-25T13:21:56.046Z,12.90
2023-04-25T13:24:23.602Z,12.80
2023-04-25T13:26:50.795Z,12.80
2023-04-25T13:29:18.379Z,12.90
2023-04-25T13:31:45.484Z,13.00
2023-04-25T13:34:14.851Z,13.10
2023-04-25T13:36:42.020Z,13.10
2023-04-25T13:39:09.490Z,13.10
2023-04-25T13:41:37.004Z,13.30
2023-04-25T13:44:04.973Z,13.30
2023-04-25T13:46:45.708Z,13.20
2023-04-25T13:49:15.906Z,13.20
2023-04-25T13:51:43.777Z,13.10
2023-04-25T13:54:12.182Z,12.80
2023-04-25T13:56:40.127Z,12.60
2023-04-25T13:59:07.492Z,12.50
2023-04-25T14:01:37.117Z,12.40
2023-04-25T14:04:07.475Z,12.30
2023-04-25T14:06:36.876Z,12.30
2023-04-25T14:09:05.329Z,12.30
2023-04-25T14:11:33.048Z,12.40
2023-04-25T14:14:00.374Z,12.50
2023-04-25T14:16:27.576Z,12.80
2023-04-25T14:18:55.880Z,13.00
2023-04-25T14:21:22.972Z,13.10
2023-04-25T14:23:51.651Z,13.00
2023-04-25T14:26:19.246Z,12.90
2023-04-25T14:28:46.441Z,12.80
2023-04-25T14:31:13.490Z,12.70
2023-04-25T14:33:44.012Z,12.70
2023-04-25T14:36:11.594Z,12.70
2023-04-25T14:38:39.132Z,12.70
2023-04-25T14:41:07.685Z,12.60
2023-04-25T14:43:35.288Z,12.60
2023-04-25T14:46:03.066Z,12.40
2023-04-25T14:48:30.919Z,12.40
2023-04-25T14:51:02.103Z,12.40
2023-04-25T14:56:15.968Z,12.60
2023-04-25T14:58:43.038Z,12.50
2023-04-25T15:01:10.785Z,12.60
2023-04-25T15:03:38.075Z,12.60
2023-04-25T15:06:07.141Z,12.70
2023-04-25T15:08:34.691Z,12.60
2023-04-25T15:11:03.867Z,12.50
2023-04-25T15:13:33.560Z,12.30
2023-04-25T15:16:04.960Z,12.10
2023-04-25T15:18:32.444Z,12.20
2023-04-25T15:21:02.611Z,12.20
2023-04-25T15:23:33.030Z,12.30
2023-04-25T15:26:03.450Z,12.30
2023-04-25T15:28:32.868Z,12.40
2023-04-25T15:31:00.419Z,12.40
2023-04-25T15:33:27.481Z,12.40
2023-04-25T15:35:55.368Z,12.50
2023-04-25T15:38:22.790Z,12.30
2023-04-25T15:40:50.055Z,12.40
2023-04-25T15:43:17.794Z,12.40
2023-04-25T15:45:49.015Z,12.40
2023-04-25T15:48:16.705Z,12.30
2023-04-25T15:50:44.352Z,12.30
2023-04-25T15:53:12.019Z,12.40
2023-04-25T15:55:39.256Z,12.50
2023-04-25T15:58:11.342Z,12.60
2023-04-25T16:00:40.518Z,12.50
2023-04-25T16:03:12.688Z,12.50
2023-04-25T16:05:42.543Z,12.60
2023-04-25T16:08:10.207Z,12.60
2023-04-25T16:10:40.201Z,12.50
2023-04-25T16:15:55.547Z,12.40
2023-04-25T16:18:24.304Z,12.30
2023-04-25T16:20:51.391Z,12.30
2023-04-25T16:23:19.702Z,12.30
2023-04-25T16:25:47.360Z,12.20
2023-04-25T16:28:14.422Z,12.30
2023-04-25T16:30:41.948Z,12.40
2023-04-25T16:33:12.530Z,12.30
2023-04-25T16:35:41.079Z,12.20
2023-04-25T16:38:11.468Z,12.10
2023-04-25T16:40:38.552Z,12.00
2023-04-25T16:43:11.098Z,11.90
2023-04-25T16:45:54.428Z,11.80
2023-04-25T16:48:24.243Z,11.80
2023-04-25T16:50:57.095Z,11.80
2023-04-25T16:53:24.562Z,11.70
2023-04-25T16:55:51.580Z,11.60
2023-04-25T16:58:19.681Z,11.60
2023-04-25T17:00:50.273Z,11.70
2023-04-25T17:03:17.606Z,11.70
2023-04-25T17:05:45.020Z,11.70
2023-04-25T17:08:20.214Z,11.60
2023-04-25T17:10:47.317Z,11.60
2023-04-25T17:13:20.447Z,11.50
2023-04-25T17:15:55.583Z,11.30
2023-04-25T17:18:26.102Z,11.30
2023-04-25T17:20:53.390Z,11.20
2023-04-25T17:23:27.725Z,11.20
2023-04-25T17:25:58.173Z,11.10
2023-04-25T17:28:25.675Z,11.00
2023-04-25T17:30:54.748Z,11.00
2023-04-25T17:33:27.531Z,11.00
2023-04-25T17:35:55.610Z,11.00
2023-04-25T17:38:27.622Z,11.00
2023-04-25T17:40:56.958Z,11.00
2023-04-25T17:43:25.073Z,11.10
2023-04-25T17:45:52.184Z,11.10
2023-04-25T17:48:23.039Z,11.10
2023-04-25T17:50:53.468Z,11.00
2023-04-25T17:53:21.496Z,11.00
2023-04-25T17:55:51.096Z,11.00
2023-04-25T17:58:18.324Z,10.90
2023-04-25T18:00:47.107Z,10.90
2023-04-25T18:03:14.785Z,10.80
2023-04-25T18:05:42.898Z,10.70
2023-04-25T18:08:10.406Z,10.70
2023-04-25T18:10:38.903Z,10.60
2023-04-25T18:13:10.520Z,10.60
2023-04-25T18:15:37.745Z,10.60
2023-04-25T18:18:14.715Z,10.50
2023-04-25T18:20:45.296Z,10.50
2023-04-25T18:23:13.491Z,10.40
2023-04-25T18:25:42.173Z,10.30
2023-04-25T18:28:10.610Z,10.30
2023-04-25T18:30:43.859Z,10.20
2023-04-25T18:33:10.966Z,10.20
2023-04-25T18:35:48.290Z,10.20
2023-04-25T18:38:35.624Z,10.20
2023-04-25T18:41:26.986Z,10.10
2023-04-25T18:43:53.551Z,10.10
2023-04-25T18:46:22.700Z,10.00
2023-04-25T18:48:53.804Z,10.00
2023-04-25T18:51:28.737Z,10.00
2023-04-25T18:53:56.298Z,9.90
2023-04-25T18:56:28.062Z,9.90
2023-04-25T18:58:57.748Z,9.90
2023-04-25T19:01:26.567Z,9.80
2023-04-25T19:03:58.476Z,9.80
2023-04-25T19:06:30.054Z,9.80
2023-04-25T19:09:00.970Z,9.80
2023-04-25T19:11:28.206Z,9.70
2023-04-25T19:14:01.624Z,9.60
2023-04-25T19:16:29.120Z,9.60
2023-04-25T19:18:57.619Z,9.50
2023-04-25T19:21:28.078Z,9.40
2023-04-25T19:23:56.972Z,9.40
2023-04-25T19:26:27.629Z,9.40
2023-04-25T19:29:09.349Z,9.30
2023-04-25T19:31:37.927Z,9.20
2023-04-25T19:34:07.070Z,9.20
2023-04-25T19:36:39.200Z,9.20
2023-04-25T19:39:07.244Z,9.10
2023-04-25T19:41:36.662Z,9.00
2023-04-25T19:44:08.372Z,9.10
2023-04-25T19:46:36.843Z,8.90
2023-04-25T19:49:07.720Z,8.90
2023-04-25T19:51:37.402Z,8.80
2023-04-25T19:54:04.961Z,8.70
2023-04-25T19:56:32.542Z,8.70
2023-04-25T19:58:59.581Z,8.70
2023-04-25T20:01:28.352Z,8.50
2023-04-25T20:03:56.340Z,8.50
2023-04-25T20:06:27.226Z,8.40
2023-04-25T20:08:54.894Z,8.40
2023-04-25T20:11:22.785Z,8.40
2023-04-25T20:13:50.510Z,8.30
2023-04-25T20:16:20.036Z,8.30
2023-04-25T20:18:49.391Z,8.20
2023-04-25T20:21:18.417Z,8.20
2023-04-25T20:23:45.985Z,8.20
2023-04-25T20:26:13.114Z,8.20
2023-04-25T20:28:42.418Z,8.20
2023-04-25T20:31:11.415Z,8.10
2023-04-25T20:33:44.747Z,8.10
2023-04-25T20:36:15.968Z,8.10
2023-04-25T20:38:43.493Z,8.10
2023-04-25T20:41:10.623Z,8.00
2023-04-25T20:43:40.747Z,7.90
2023-04-25T20:46:17.211Z,7.90
2023-04-25T20:48:47.911Z,7.80
2023-04-25T20:51:20.228Z,7.80
2023-04-25T20:53:48.003Z,7.70
2023-04-25T20:56:15.580Z,7.70
2023-04-25T20:58:42.763Z,7.60
2023-04-25T21:01:09.974Z,7.50
2023-04-25T21:03:37.573Z,7.40
2023-04-25T21:06:08.647Z,7.40
2023-04-25T21:08:37.348Z,7.30
2023-04-25T21:11:05.453Z,7.40
2023-04-25T21:13:33.017Z,7.50
2023-04-25T21:16:00.693Z,7.50
2023-04-25T21:18:29.918Z,7.30
2023-04-25T21:21:04.811Z,7.40
2023-04-25T21:23:32.212Z,7.40
2023-04-25T21:26:02.027Z,7.50
2023-04-25T21:28:29.437Z,7.60
2023-04-25T21:30:57.487Z,7.60
2023-04-25T21:33:25.560Z,7.40
2023-04-25T21:35:52.841Z,7.40
2023-04-25T21:38:21.066Z,7.40
2023-04-25T21:40:49.732Z,7.40
2023-04-25T21:43:19.490Z,7.50
2023-04-25T21:46:11.053Z,7.60
2023-04-25T21:48:35.661Z,7.40
2023-04-25T21:51:06.316Z,7.20
2023-04-25T21:53:34.562Z,6.90
2023-04-25T21:56:05.521Z,6.90
2023-04-25T21:58:34.572Z,6.90
2023-04-25T22:01:02.262Z,6.90
2023-04-25T22:03:36.507Z,6.70
2023-04-25T22:06:04.432Z,6.80
2023-04-25T22:08:31.548Z,6.70
2023-04-25T22:11:00.077Z,6.80
2023-04-25T22:13:29.423Z,6.80
2023-04-25T22:15:58.979Z,6.70
2023-04-25T22:18:26.875Z,6.60
2023-04-25T22:20:54.459Z,6.50
2023-04-25T22:23:21.377Z,6.60
2023-04-25T22:28:34.161Z,6.60
2023-04-25T22:31:02.754Z,6.70
2023-04-25T22:33:30.318Z,6.60
2023-04-25T22:35:57.335Z,6.60
2023-04-25T22:38:24.834Z,6.60
2023-04-25T22:40:52.082Z,6.60
2023-04-25T22:43:19.653Z,6.50
2023-04-25T22:45:47.528Z,6.50
2023-04-25T22:48:15.900Z,6.60
2023-04-25T22:50:43.906Z,6.60
2023-04-25T22:53:11.355Z,6.50
2023-04-25T22:55:38.415Z,6.50
2023-04-25T22:58:08.960Z,6.60
2023-04-25T23:00:37.957Z,6.60
2023-04-25T23:03:06.001Z,6.50
2023-04-25T23:05:35.090Z,6.50
2023-04-25T23:08:02.022Z,6.60
2023-04-25T23:10:29.834Z,6.60
2023-04-25T23:13:00.934Z,6.40
2023-04-25T23:15:30.891Z,6.30
2023-04-25T23:17:58.862Z,6.40
2023-04-25T23:20:26.132Z,6.50
2023-04-25T23:22:55.539Z,6.40
2023-04-25T23:25:22.992Z,6.40
2023-04-25T23:27:50.643Z,6.40
2023-04-25T23:30:18.494Z,6.30
2023-04-25T23:32:45.913Z,6.20
2023-04-25T23:35:13.282Z,6.20
2023-04-25T23:37:40.649Z,6.20
2023-04-25T23:40:10.975Z,6.40
2023-04-25T23:42:39.080Z,6.40
2023-04-25T23:45:09.114Z,6.40
2023-04-25T23:47:36.498Z,6.40
2023-04-25T23:50:05.109Z,6.40
2023-04-25T23:52:32.168Z,6.40
2023-04-25T23:54:59.170Z,6.40
2023-04-25T23:57:28.435Z,6.20
2023-04-25T23:59:56.423Z,6.40
